createdAt,value
2023-02-21T00:00:23.659Z,24.23
2023-02-21T00:01:44.431Z,25.90
2023-02-21T00:03:05.394Z,26.25
2023-02-21T00:04:26.251Z,26.08
2023-02-21T00:05:47.183Z,25.63
2023-02-21T00:07:08.229Z,26.10
2023-02-21T00:08:29.066Z,25.32
2023-02-21T00:09:50.020Z,25.43
2023-02-21T00:11:10.949Z,25.07
2023-02-21T00:12:32.169Z,25.37
2023-02-21T00:13:57.083Z,25.45
2023-02-21T00:15:17.692Z,26.00
2023-02-21T00:16:38.604Z,26.87
2023-02-21T00:17:59.236Z,26.23
2023-02-21T00:19:19.978Z,24.87
2023-02-21T00:20:41.096Z,26.35
2023-02-21T00:22:02.086Z,25.27
2023-02-21T00:23:23.070Z,24.87
2023-02-21T00:24:43.979Z,25.05
2023-02-21T00:26:04.920Z,25.30
2023-02-21T00:27:25.654Z,25.85
2023-02-21T00:28:46.547Z,26.05
2023-02-21T00:30:08.407Z,25.45
2023-02-21T00:31:29.268Z,26.88
2023-02-21T00:32:50.615Z,25.83
2023-02-21T00:34:11.920Z,26.17
2023-02-21T00:35:32.632Z,25.60
2023-02-21T00:36:53.691Z,25.47
2023-02-21T00:38:14.353Z,26.00
2023-02-21T00:39:35.366Z,25.77
2023-02-21T00:40:56.631Z,24.55
2023-02-21T00:42:17.344Z,24.45
2023-02-21T00:43:38.084Z,24.77
2023-02-21T00:44:58.814Z,25.27
2023-02-21T00:46:19.663Z,23.82
2023-02-21T00:47:40.218Z,24.97
2023-02-21T00:49:01.174Z,25.43
2023-02-21T00:50:21.957Z,24.13
2023-02-21T00:51:42.744Z,24.58
2023-02-21T00:53:03.413Z,25.10
2023-02-21T00:54:24.016Z,24.25
2023-02-21T00:55:44.880Z,25.03
2023-02-21T00:57:05.748Z,25.07
2023-02-21T00:58:26.590Z,24.30
2023-02-21T00:59:47.862Z,23.40
2023-02-21T01:01:11.243Z,24.25
2023-02-21T01:02:31.771Z,22.98
2023-02-21T01:03:53.197Z,23.77
2023-02-21T01:05:14.055Z,23.57
2023-02-21T01:06:34.979Z,24.07
2023-02-21T01:07:56.514Z,24.20
2023-02-21T01:09:17.469Z,24.72
2023-02-21T01:10:38.854Z,23.88
2023-02-21T01:11:59.852Z,24.80
2023-02-21T01:13:20.928Z,25.37
2023-02-21T01:14:41.548Z,24.57
2023-02-21T01:16:02.742Z,25.43
2023-02-21T01:17:23.913Z,25.05
2023-02-21T01:18:44.572Z,23.98
2023-02-21T01:20:05.515Z,24.32
2023-02-21T01:21:31.743Z,23.68
2023-02-21T01:22:52.863Z,24.08
2023-02-21T01:24:13.951Z,23.42
2023-02-21T01:25:34.835Z,25.22
2023-02-21T01:26:55.842Z,25.00
2023-02-21T01:28:16.626Z,24.20
2023-02-21T01:29:37.437Z,24.57
2023-02-21T01:30:58.179Z,25.30
2023-02-21T01:32:18.891Z,25.07
2023-02-21T01:33:39.947Z,24.37
2023-02-21T01:35:00.539Z,24.62
2023-02-21T01:36:24.129Z,24.30
2023-02-21T01:37:45.082Z,25.42
2023-02-21T01:39:05.704Z,24.97
2023-02-21T01:40:27.249Z,25.05
2023-02-21T01:41:47.862Z,24.37
2023-02-21T01:43:08.845Z,25.83
2023-02-21T01:45:02.950Z,25.05
2023-02-21T01:46:24.464Z,24.72
2023-02-21T01:47:45.911Z,25.48
2023-02-21T01:49:08.153Z,23.75
2023-02-21T01:50:42.519Z,25.03
2023-02-21T01:52:03.844Z,25.37
2023-02-21T01:53:42.862Z,23.78
2023-02-21T01:55:07.913Z,23.47
2023-02-21T01:56:29.614Z,22.90
2023-02-21T01:57:52.425Z,22.92
2023-02-21T01:59:16.932Z,21.70
2023-02-21T02:01:07.341Z,21.12
2023-02-21T02:02:58.043Z,22.18
2023-02-21T02:04:20.137Z,21.87
2023-02-21T02:05:41.680Z,21.95
2023-02-21T02:07:02.484Z,22.18
2023-02-21T02:08:23.685Z,22.17
2023-02-21T02:09:44.432Z,22.33
2023-02-21T02:11:10.583Z,23.32
2023-02-21T02:12:31.201Z,23.25
2023-02-21T02:13:45.832Z,23.02
2023-02-21T02:15:00.008Z,22.38
2023-02-21T02:16:21.822Z,23.03
2023-02-21T02:17:45.328Z,22.23
2023-02-21T02:19:08.631Z,22.20
2023-02-21T02:20:17.079Z,22.43
2023-02-21T02:21:46.885Z,22.20
2023-02-21T02:22:58.086Z,22.75
2023-02-21T02:24:31.173Z,22.55
2023-02-21T02:25:45.790Z,22.43
2023-02-21T02:26:57.049Z,23.10
2023-02-21T02:28:36.153Z,22.80
2023-02-21T02:30:15.113Z,22.82
2023-02-21T02:31:45.249Z,23.02
2023-02-21T02:33:24.809Z,21.68
2023-02-21T02:34:38.352Z,21.17
2023-02-21T02:35:52.815Z,20.85
2023-02-21T02:37:10.433Z,21.22
2023-02-21T02:38:35.575Z,20.85
2023-02-21T02:39:42.355Z,20.78
2023-02-21T02:41:06.592Z,21.17
2023-02-21T02:42:15.302Z,20.87
2023-02-21T02:43:30.438Z,20.60
2023-02-21T02:44:41.295Z,20.65
2023-02-21T02:45:57.048Z,20.38
2023-02-21T02:47:02.280Z,20.58
2023-02-21T02:48:34.878Z,20.93
2023-02-21T02:49:41.477Z,20.72
2023-02-21T02:50:46.318Z,19.83
2023-02-21T02:51:51.046Z,19.45
2023-02-21T02:52:55.201Z,19.10
2023-02-21T02:53:57.934Z,18.97
2023-02-21T02:55:04.314Z,19.82
2023-02-21T02:56:11.002Z,18.83
2023-02-21T02:57:13.578Z,18.63
2023-02-21T02:58:17.452Z,17.78
2023-02-21T02:59:25.975Z,17.28
2023-02-21T03:00:29.524Z,16.43
2023-02-21T03:01:50.190Z,16.48
2023-02-21T03:03:14.493Z,15.17
2023-02-21T03:04:41.098Z,14.78
2023-02-21T03:06:17.930Z,14.08
2023-02-21T03:07:44.290Z,13.80
2023-02-21T03:08:55.185Z,13.77
2023-02-21T03:10:21.936Z,13.52
2023-02-21T03:11:25.810Z,13.30
2023-02-21T03:12:46.744Z,12.98
2023-02-21T03:13:50.088Z,12.70
2023-02-21T03:15:09.159Z,11.68
2023-02-21T03:16:24.597Z,11.50
2023-02-21T03:17:29.218Z,11.68
2023-02-21T03:18:41.541Z,11.17
2023-02-21T03:19:46.417Z,10.62
2023-02-21T03:20:55.144Z,9.72
2023-02-21T03:22:07.389Z,9.75
2023-02-21T03:23:13.527Z,9.23
2023-02-21T03:24:18.706Z,9.50
2023-02-21T03:25:23.500Z,9.25
2023-02-21T03:26:28.061Z,8.30
2023-02-21T03:27:32.052Z,8.75
2023-02-21T03:28:35.396Z,8.90
2023-02-21T03:29:39.789Z,8.95
2023-02-21T03:30:42.603Z,8.95
2023-02-21T03:31:49.368Z,8.57
2023-02-21T03:32:53.314Z,7.88
2023-02-21T03:33:56.138Z,7.03
2023-02-21T03:34:58.651Z,6.87
2023-02-21T03:36:05.530Z,6.60
2023-02-21T03:37:11.148Z,6.70
2023-02-21T03:38:13.487Z,6.90
2023-02-21T03:39:15.817Z,6.78
2023-02-21T03:40:23.894Z,7.12
2023-02-21T03:41:26.322Z,7.17
2023-02-21T03:42:28.700Z,6.83
2023-02-21T03:43:31.079Z,6.82
2023-02-21T03:44:33.571Z,6.80
2023-02-21T03:45:36.465Z,6.80
2023-02-21T03:46:40.867Z,6.63
2023-02-21T03:47:43.348Z,7.47
2023-02-21T03:48:45.807Z,7.47
2023-02-21T03:49:48.195Z,8.20
2023-02-21T03:50:50.548Z,8.98
2023-02-21T03:51:52.901Z,9.15
2023-02-21T03:52:55.423Z,8.68
2023-02-21T03:53:57.811Z,7.72
2023-02-21T03:55:00.683Z,7.32
2023-02-21T03:56:03.086Z,6.47
2023-02-21T03:57:05.410Z,6.55
2023-02-21T03:58:07.794Z,6.60
2023-02-21T03:59:10.213Z,6.48
2023-02-21T04:00:14.146Z,6.45
2023-02-21T04:01:17.036Z,6.38
2023-02-21T04:02:20.006Z,6.38
2023-02-21T04:03:22.338Z,6.03
2023-02-21T04:04:24.678Z,6.25
2023-02-21T04:05:27.045Z,5.63
2023-02-21T04:06:29.418Z,5.43
2023-02-21T04:07:31.813Z,5.47
2023-02-21T04:08:34.200Z,5.33
2023-02-21T04:09:36.716Z,5.32
2023-02-21T04:10:51.282Z,5.52
2023-02-21T04:11:54.490Z,5.72
2023-02-21T04:12:59.263Z,5.35
2023-02-21T04:14:01.596Z,5.48
2023-02-21T04:15:04.224Z,5.53
2023-02-21T04:16:06.796Z,5.50
2023-02-21T04:17:09.370Z,5.43
2023-02-21T04:18:11.727Z,5.45
2023-02-21T04:19:14.129Z,5.53
2023-02-21T04:20:16.667Z,5.47
2023-02-21T04:21:19.230Z,5.72
2023-02-21T04:22:22.491Z,6.17
2023-02-21T04:23:24.984Z,5.52
2023-02-21T04:24:27.478Z,5.72
2023-02-21T04:25:29.828Z,5.57
2023-02-21T04:26:32.296Z,5.57
2023-02-21T04:27:37.393Z,5.88
2023-02-21T04:28:39.802Z,6.02
2023-02-21T04:29:42.178Z,5.88
2023-02-21T04:30:44.611Z,5.82
2023-02-21T04:31:47.076Z,5.35
2023-02-21T04:32:49.458Z,5.58
2023-02-21T04:33:59.494Z,5.23
2023-02-21T04:35:08.448Z,5.58
2023-02-21T04:36:11.345Z,5.55
2023-02-21T04:37:13.695Z,5.23
2023-02-21T04:38:16.137Z,5.50
2023-02-21T04:39:18.466Z,5.20
2023-02-21T04:40:20.799Z,5.18
2023-02-21T04:41:23.785Z,5.12
2023-02-21T04:42:26.165Z,5.13
2023-02-21T04:43:28.487Z,5.20
2023-02-21T04:44:30.828Z,5.25
2023-02-21T04:45:33.226Z,4.78
2023-02-21T04:46:35.724Z,5.00
2023-02-21T04:47:38.119Z,5.02
2023-02-21T04:48:40.464Z,4.75
2023-02-21T04:49:42.874Z,5.22
2023-02-21T04:50:45.358Z,4.13
2023-02-21T04:51:47.752Z,4.87
2023-02-21T04:52:50.342Z,5.65
2023-02-21T04:53:53.775Z,5.42
2023-02-21T04:54:56.101Z,4.67
2023-02-21T04:55:58.453Z,4.73
2023-02-21T04:57:00.802Z,4.93
2023-02-21T04:58:03.170Z,4.58
2023-02-21T04:59:05.693Z,4.83
2023-02-21T05:00:08.441Z,4.83
2023-02-21T05:01:12.843Z,5.53
2023-02-21T05:02:15.365Z,5.80
2023-02-21T05:03:18.335Z,7.12
2023-02-21T05:04:20.735Z,6.27
2023-02-21T05:05:23.174Z,5.42
2023-02-21T05:06:27.154Z,5.90
2023-02-21T05:07:29.809Z,6.05
2023-02-21T05:08:32.130Z,5.87
2023-02-21T05:09:34.438Z,5.52
2023-02-21T05:10:45.248Z,6.00
2023-02-21T05:11:48.133Z,5.90
2023-02-21T05:12:50.558Z,5.52
2023-02-21T05:13:53.166Z,5.75
2023-02-21T05:14:55.519Z,5.43
2023-02-21T05:15:57.830Z,5.67
2023-02-21T05:17:00.185Z,5.52
2023-02-21T05:18:02.567Z,5.28
2023-02-21T05:19:04.931Z,5.13
2023-02-21T05:20:11.776Z,5.37
2023-02-21T05:21:35.655Z,5.55
2023-02-21T05:23:04.796Z,5.20
2023-02-21T05:24:14.185Z,6.13
2023-02-21T05:25:19.622Z,6.28
2023-02-21T05:26:25.680Z,6.72
2023-02-21T05:27:28.074Z,7.83
2023-02-21T05:28:30.431Z,7.62
2023-02-21T05:29:32.786Z,9.03
2023-02-21T05:30:35.254Z,9.15
2023-02-21T05:31:37.717Z,9.45
2023-02-21T05:32:40.325Z,9.92
2023-02-21T05:33:42.679Z,9.80
2023-02-21T05:34:46.940Z,10.47
2023-02-21T05:35:49.913Z,10.95
2023-02-21T05:36:52.250Z,11.00
2023-02-21T05:37:54.622Z,10.47
2023-02-21T05:38:57.091Z,10.02
2023-02-21T05:39:59.711Z,10.77
2023-02-21T05:41:02.098Z,12.53
2023-02-21T05:42:04.466Z,15.32
2023-02-21T05:43:06.870Z,17.08
2023-02-21T05:44:09.218Z,19.08
2023-02-21T05:45:12.841Z,20.72
2023-02-21T05:46:33.003Z,28.78
2023-02-21T05:47:35.440Z,33.65
2023-02-21T05:48:37.800Z,28.32
2023-02-21T05:49:40.919Z,16.68
2023-02-21T05:50:45.041Z,16.98
2023-02-21T05:51:47.472Z,18.47
2023-02-21T05:52:49.806Z,17.18
2023-02-21T05:53:52.318Z,15.60
2023-02-21T05:54:54.730Z,15.05
2023-02-21T05:55:57.775Z,13.77
2023-02-21T05:57:00.105Z,13.53
2023-02-21T05:58:02.437Z,12.38
2023-02-21T05:59:05.094Z,12.13
2023-02-21T06:00:08.138Z,12.03
2023-02-21T06:01:11.004Z,11.33
2023-02-21T06:02:13.398Z,10.63
2023-02-21T06:03:15.818Z,10.50
2023-02-21T06:04:18.840Z,10.00
2023-02-21T06:05:22.046Z,9.52
2023-02-21T06:06:24.399Z,9.18
2023-02-21T06:07:26.762Z,9.33
2023-02-21T06:08:29.132Z,9.02
2023-02-21T06:09:31.520Z,8.70
2023-02-21T06:10:33.906Z,8.90
2023-02-21T06:11:38.147Z,9.97
2023-02-21T06:12:40.517Z,9.88
2023-02-21T06:13:42.879Z,9.75
2023-02-21T06:14:45.203Z,12.05
2023-02-21T06:15:47.647Z,11.32
2023-02-21T06:16:50.289Z,12.92
2023-02-21T06:17:52.781Z,18.93
2023-02-21T06:18:57.237Z,14.95
2023-02-21T06:19:59.705Z,11.33
2023-02-21T06:21:02.186Z,9.73
2023-02-21T06:22:04.674Z,9.05
2023-02-21T06:23:07.300Z,9.30
2023-02-21T06:24:10.691Z,9.08
2023-02-21T06:25:13.114Z,8.12
2023-02-21T06:26:19.250Z,8.37
2023-02-21T06:27:21.725Z,7.67
2023-02-21T06:28:30.577Z,7.48
2023-02-21T06:29:33.007Z,7.20
2023-02-21T06:30:35.968Z,7.30
2023-02-21T06:31:38.538Z,7.28
2023-02-21T06:32:42.520Z,7.00
2023-02-21T06:33:44.926Z,6.77
2023-02-21T06:34:47.931Z,6.37
2023-02-21T06:35:50.327Z,6.58
2023-02-21T06:36:54.180Z,6.58
2023-02-21T06:37:56.713Z,6.40
2023-02-21T06:38:59.096Z,6.88
2023-02-21T06:40:01.466Z,7.08
2023-02-21T06:41:08.396Z,7.13
2023-02-21T06:42:14.978Z,7.38
2023-02-21T06:43:18.585Z,6.93
2023-02-21T06:44:21.338Z,7.02
2023-02-21T06:45:23.735Z,7.22
2023-02-21T06:46:29.943Z,7.15
2023-02-21T06:47:33.902Z,7.30
2023-02-21T06:48:37.668Z,7.35
2023-02-21T06:49:41.360Z,8.32
2023-02-21T06:50:43.850Z,7.97
2023-02-21T06:51:47.943Z,7.80
2023-02-21T06:52:52.025Z,8.47
2023-02-21T06:53:57.145Z,8.15
2023-02-21T06:55:00.841Z,7.68
2023-02-21T06:56:04.922Z,8.15
2023-02-21T06:57:12.193Z,8.45
2023-02-21T06:58:18.444Z,8.67
2023-02-21T06:59:21.063Z,8.73
2023-02-21T07:00:27.378Z,9.02
2023-02-21T07:01:30.552Z,8.93
2023-02-21T07:02:33.116Z,8.55
2023-02-21T07:03:41.266Z,8.88
2023-02-21T07:04:43.801Z,8.72
2023-02-21T07:05:48.366Z,8.33
2023-02-21T07:06:51.733Z,8.30
2023-02-21T07:07:54.873Z,8.95
2023-02-21T07:08:57.607Z,8.78
2023-02-21T07:10:00.102Z,8.77
2023-02-21T07:11:02.758Z,7.67
2023-02-21T07:12:05.229Z,7.12
2023-02-21T07:13:07.672Z,7.90
2023-02-21T07:14:11.456Z,7.67
2023-02-21T07:15:13.846Z,7.80
2023-02-21T07:16:18.105Z,6.43
2023-02-21T07:17:20.840Z,6.72
2023-02-21T07:18:23.353Z,6.48
2023-02-21T07:19:25.806Z,6.38
2023-02-21T07:20:28.223Z,6.93
2023-02-21T07:21:30.796Z,6.50
2023-02-21T07:22:33.203Z,6.33
2023-02-21T07:23:35.673Z,6.20
2023-02-21T07:24:38.277Z,6.08
2023-02-21T07:25:40.685Z,6.13
2023-02-21T07:26:45.453Z,5.93
2023-02-21T07:27:48.674Z,6.17
2023-02-21T07:28:51.089Z,6.13
2023-02-21T07:29:53.506Z,6.23
2023-02-21T07:30:56.113Z,6.73
2023-02-21T07:31:58.611Z,7.22
2023-02-21T07:33:01.144Z,6.90
2023-02-21T07:34:03.725Z,6.90
2023-02-21T07:35:06.835Z,6.50
2023-02-21T07:36:09.592Z,6.27
2023-02-21T07:37:12.426Z,6.52
2023-02-21T07:38:22.918Z,6.85
2023-02-21T07:39:25.456Z,6.92
2023-02-21T07:40:27.825Z,7.12
2023-02-21T07:41:30.271Z,6.77
2023-02-21T07:42:35.834Z,6.58
2023-02-21T07:43:39.369Z,6.58
2023-02-21T07:44:41.800Z,6.67
2023-02-21T07:45:45.315Z,5.82
2023-02-21T07:46:50.912Z,5.73
2023-02-21T07:47:53.542Z,6.05
2023-02-21T07:48:56.974Z,5.88
2023-02-21T07:49:59.895Z,6.02
2023-02-21T07:51:04.392Z,6.22
2023-02-21T07:52:08.821Z,6.07
2023-02-21T07:53:13.284Z,6.37
2023-02-21T07:54:16.970Z,6.02
2023-02-21T07:55:19.375Z,5.98
2023-02-21T07:56:22.270Z,6.28
2023-02-21T07:57:25.162Z,6.45
2023-02-21T07:58:27.642Z,6.27
2023-02-21T07:59:30.127Z,5.88
2023-02-21T08:00:32.748Z,5.88
2023-02-21T08:01:35.276Z,6.03
2023-02-21T08:02:37.706Z,6.22
2023-02-21T08:03:41.079Z,5.92
2023-02-21T08:04:43.528Z,6.27
2023-02-21T08:05:47.015Z,6.20
2023-02-21T08:06:49.537Z,5.87
2023-02-21T08:07:52.560Z,6.38
2023-02-21T08:08:55.884Z,6.63
2023-02-21T08:09:58.330Z,7.27
2023-02-21T08:11:00.796Z,6.35
2023-02-21T08:12:03.704Z,6.83
2023-02-21T08:13:06.550Z,6.90
2023-02-21T08:14:08.884Z,6.73
2023-02-21T08:15:11.447Z,7.37
2023-02-21T08:16:14.413Z,7.50
2023-02-21T08:17:17.003Z,6.78
2023-02-21T08:18:24.590Z,7.05
2023-02-21T08:19:27.180Z,7.68
2023-02-21T08:20:29.613Z,8.03
2023-02-21T08:21:31.977Z,7.32
2023-02-21T08:22:34.470Z,8.12
2023-02-21T08:23:37.512Z,7.68
2023-02-21T08:24:39.934Z,7.80
2023-02-21T08:25:42.325Z,7.33
2023-02-21T08:26:45.712Z,7.60
2023-02-21T08:27:53.633Z,7.12
2023-02-21T08:28:56.041Z,7.58
2023-02-21T08:29:58.422Z,7.72
2023-02-21T08:31:00.873Z,8.23
2023-02-21T08:32:03.373Z,7.88
2023-02-21T08:33:06.221Z,7.57
2023-02-21T08:34:08.937Z,8.40
2023-02-21T08:35:15.169Z,11.28
2023-02-21T08:36:17.511Z,7.52
2023-02-21T08:37:22.899Z,7.05
2023-02-21T08:38:27.554Z,7.13
2023-02-21T08:39:32.054Z,6.87
2023-02-21T08:40:34.458Z,6.28
2023-02-21T08:41:45.187Z,5.48
2023-02-21T08:42:52.071Z,5.63
2023-02-21T08:43:54.415Z,5.58
2023-02-21T08:44:59.279Z,5.55
2023-02-21T08:46:02.895Z,5.77
2023-02-21T08:47:05.244Z,6.18
2023-02-21T08:48:07.785Z,6.22
2023-02-21T08:49:10.849Z,6.42
2023-02-21T08:50:13.650Z,6.15
2023-02-21T08:51:16.398Z,6.02
2023-02-21T08:52:21.293Z,6.20
2023-02-21T08:53:23.760Z,5.95
2023-02-21T08:54:26.144Z,5.85
2023-02-21T08:55:28.556Z,5.62
2023-02-21T08:56:31.108Z,4.83
2023-02-21T08:57:34.757Z,4.47
2023-02-21T08:58:38.067Z,4.25
2023-02-21T08:59:42.825Z,4.37
2023-02-21T09:00:45.301Z,4.17
2023-02-21T09:01:47.786Z,4.65
2023-02-21T09:02:51.604Z,4.13
2023-02-21T09:03:53.983Z,3.97
2023-02-21T09:04:56.394Z,3.98
2023-02-21T09:05:59.648Z,4.17
2023-02-21T09:07:01.954Z,4.25
2023-02-21T09:08:05.395Z,4.22
2023-02-21T09:09:07.813Z,3.93
2023-02-21T09:10:11.728Z,4.12
2023-02-21T09:11:14.475Z,4.35
2023-02-21T09:12:17.171Z,4.32
2023-02-21T09:13:19.600Z,3.90
2023-02-21T09:14:21.966Z,3.80
2023-02-21T09:15:24.481Z,4.07
2023-02-21T09:16:26.934Z,4.02
2023-02-21T09:17:29.341Z,4.38
2023-02-21T09:18:32.376Z,4.20
2023-02-21T09:19:35.277Z,3.83
2023-02-21T09:20:41.728Z,3.73
2023-02-21T09:21:48.173Z,3.85
2023-02-21T09:22:51.286Z,4.15
2023-02-21T09:23:55.082Z,4.63
2023-02-21T09:24:58.066Z,5.05
2023-02-21T09:26:00.545Z,4.63
2023-02-21T09:27:03.871Z,3.97
2023-02-21T09:28:06.233Z,4.17
2023-02-21T09:29:08.657Z,3.85
2023-02-21T09:30:21.723Z,3.62
2023-02-21T09:31:24.452Z,4.10
2023-02-21T09:32:28.872Z,3.80
2023-02-21T09:33:31.224Z,3.52
2023-02-21T09:34:33.591Z,3.38
2023-02-21T09:35:36.013Z,3.75
2023-02-21T09:36:38.414Z,3.62
2023-02-21T09:37:41.902Z,3.32
2023-02-21T09:38:47.179Z,3.55
2023-02-21T09:39:53.218Z,3.40
2023-02-21T09:41:01.360Z,3.38
2023-02-21T09:42:05.415Z,3.47
2023-02-21T09:43:16.476Z,3.48
2023-02-21T09:44:25.673Z,3.88
2023-02-21T09:45:33.764Z,4.40
2023-02-21T09:46:44.988Z,3.38
2023-02-21T09:47:50.243Z,3.40
2023-02-21T09:48:54.024Z,3.35
2023-02-21T09:50:04.203Z,3.45
2023-02-21T09:51:09.438Z,3.50
2023-02-21T09:52:32.407Z,3.32
2023-02-21T09:53:40.611Z,3.43
2023-02-21T09:54:47.910Z,3.37
2023-02-21T09:55:54.561Z,3.47
2023-02-21T09:57:00.214Z,3.75
2023-02-21T09:58:03.133Z,3.73
2023-02-21T09:59:11.738Z,4.90
2023-02-21T10:00:18.889Z,4.70
2023-02-21T10:01:33.262Z,4.07
2023-02-21T10:02:40.890Z,4.45
2023-02-21T10:04:04.987Z,4.47
2023-02-21T10:05:10.294Z,4.78
2023-02-21T10:06:23.216Z,4.27
2023-02-21T10:07:46.177Z,3.98
2023-02-21T10:09:29.487Z,4.17
2023-02-21T10:10:45.064Z,3.42
2023-02-21T10:12:06.299Z,3.83
2023-02-21T10:13:33.047Z,3.75
2023-02-21T10:14:41.577Z,3.68
2023-02-21T10:15:46.659Z,3.87
2023-02-21T10:16:56.944Z,3.93
2023-02-21T10:18:07.186Z,4.32
2023-02-21T10:19:19.801Z,4.12
2023-02-21T10:20:49.967Z,4.48
2023-02-21T10:21:54.642Z,4.52
2023-02-21T10:22:57.071Z,4.47
2023-02-21T10:24:04.947Z,6.05
2023-02-21T10:25:31.879Z,5.55
2023-02-21T10:26:41.229Z,4.93
2023-02-21T10:27:43.665Z,4.85
2023-02-21T10:28:46.282Z,5.53
2023-02-21T10:29:55.653Z,5.17
2023-02-21T10:31:02.738Z,5.00
2023-02-21T10:32:05.985Z,4.48
2023-02-21T10:33:11.443Z,5.17
2023-02-21T10:34:27.254Z,5.40
2023-02-21T10:35:31.408Z,4.58
2023-02-21T10:36:43.003Z,4.55
2023-02-21T10:38:16.522Z,4.65
2023-02-21T10:39:24.880Z,5.47
2023-02-21T10:40:37.049Z,5.20
2023-02-21T10:41:41.354Z,4.98
2023-02-21T10:42:57.305Z,4.62
2023-02-21T10:44:34.243Z,5.53
2023-02-21T10:45:47.935Z,6.12
2023-02-21T10:47:01.672Z,4.98
2023-02-21T10:48:10.322Z,4.45
2023-02-21T10:49:29.770Z,4.30
2023-02-21T10:50:59.652Z,4.70
2023-02-21T10:52:14.089Z,4.65
2023-02-21T10:53:33.313Z,4.30
2023-02-21T10:54:36.116Z,4.58
2023-02-21T10:55:38.618Z,5.07
2023-02-21T10:56:42.123Z,5.18
2023-02-21T10:57:47.632Z,5.42
2023-02-21T10:59:07.424Z,4.30
2023-02-21T11:00:19.796Z,5.00
2023-02-21T11:01:30.494Z,4.35
2023-02-21T11:02:36.700Z,4.65
2023-02-21T11:03:45.138Z,4.38
2023-02-21T11:04:47.655Z,4.68
2023-02-21T11:05:51.818Z,4.47
2023-02-21T11:07:06.565Z,4.60
2023-02-21T11:08:09.896Z,4.43
2023-02-21T11:09:48.530Z,4.52
2023-02-21T11:10:55.524Z,4.62
2023-02-21T11:12:06.520Z,4.33
2023-02-21T11:13:16.563Z,4.55
2023-02-21T11:14:19.000Z,4.33
2023-02-21T11:15:21.485Z,4.88
2023-02-21T11:16:24.689Z,4.80
2023-02-21T11:17:28.952Z,4.80
2023-02-21T11:18:31.442Z,4.75
2023-02-21T11:19:49.048Z,5.00
2023-02-21T11:20:53.589Z,4.22
2023-02-21T11:21:57.128Z,4.12
2023-02-21T11:22:59.799Z,4.80
2023-02-21T11:24:07.964Z,5.20
2023-02-21T11:25:32.592Z,5.13
2023-02-21T11:26:49.825Z,8.00
2023-02-21T11:28:06.608Z,5.62
2023-02-21T11:29:13.390Z,5.67
2023-02-21T11:30:23.360Z,4.82
2023-02-21T11:31:31.736Z,4.50
2023-02-21T11:32:42.728Z,4.98
2023-02-21T11:34:06.369Z,4.65
2023-02-21T11:35:20.903Z,4.83
2023-02-21T11:36:39.092Z,4.77
2023-02-21T11:37:57.745Z,4.65
2023-02-21T11:39:06.540Z,4.35
2023-02-21T11:40:33.664Z,4.28
2023-02-21T11:41:48.979Z,4.35
2023-02-21T11:42:51.730Z,4.73
2023-02-21T11:43:55.552Z,4.58
2023-02-21T11:45:18.823Z,4.50
2023-02-21T11:46:41.674Z,4.57
2023-02-21T11:47:54.199Z,4.18
2023-02-21T11:49:19.466Z,4.20
2023-02-21T11:50:26.690Z,4.07
2023-02-21T11:51:46.940Z,4.25
2023-02-21T11:53:06.754Z,4.33
2023-02-21T11:54:09.477Z,4.70
2023-02-21T11:55:19.560Z,4.87
2023-02-21T11:56:32.902Z,4.72
2023-02-21T11:57:53.481Z,5.03
2023-02-21T11:59:09.070Z,5.82
2023-02-21T12:00:29.955Z,5.00
2023-02-21T12:02:07.554Z,4.53
2023-02-21T12:03:32.123Z,5.17
2023-02-21T12:04:52.671Z,5.03
2023-02-21T12:06:01.341Z,5.27
2023-02-21T12:07:16.181Z,5.38
2023-02-21T12:08:18.502Z,6.43
2023-02-21T12:09:30.170Z,6.07
2023-02-21T12:10:52.571Z,7.18
2023-02-21T12:12:16.873Z,5.02
2023-02-21T12:13:33.684Z,5.18
2023-02-21T12:15:26.573Z,5.22
2023-02-21T12:16:32.057Z,5.40
2023-02-21T12:17:41.269Z,4.92
2023-02-21T12:19:05.918Z,4.82
2023-02-21T12:20:25.053Z,5.07
2023-02-21T12:22:08.924Z,5.17
2023-02-21T12:23:27.117Z,5.15
2023-02-21T12:25:02.944Z,4.70
2023-02-21T12:26:08.142Z,5.15
2023-02-21T12:27:23.226Z,5.47
2023-02-21T12:28:35.087Z,5.70
2023-02-21T12:29:47.243Z,5.23
2023-02-21T12:31:27.536Z,5.35
2023-02-21T12:33:11.260Z,5.12
2023-02-21T12:34:38.364Z,4.78
2023-02-21T12:36:13.882Z,4.65
2023-02-21T12:37:24.135Z,5.12
2023-02-21T12:38:46.726Z,6.35
2023-02-21T12:40:44.662Z,5.85
2023-02-21T12:41:56.725Z,5.63
2023-02-21T12:43:32.708Z,5.90
2023-02-21T12:45:04.314Z,5.40
2023-02-21T12:46:34.892Z,5.38
2023-02-21T12:47:54.733Z,4.98
2023-02-21T12:49:13.874Z,6.07
2023-02-21T12:50:22.632Z,6.35
2023-02-21T12:51:30.650Z,5.98
2023-02-21T12:53:16.624Z,5.92
2023-02-21T12:54:24.330Z,4.93
2023-02-21T12:55:38.614Z,5.25
2023-02-21T12:56:46.546Z,5.35
2023-02-21T12:57:54.122Z,5.60
2023-02-21T12:59:11.234Z,5.35
2023-02-21T13:01:22.250Z,4.48
2023-02-21T13:02:40.315Z,5.07
2023-02-21T13:03:53.724Z,6.18
2023-02-21T13:05:34.082Z,4.13
2023-02-21T13:06:52.340Z,3.70
2023-02-21T13:08:07.767Z,3.63
2023-02-21T13:09:23.680Z,3.42
2023-02-21T13:10:32.357Z,3.78
2023-02-21T13:11:45.657Z,3.58
2023-02-21T13:13:03.314Z,3.92
2023-02-21T13:14:21.855Z,3.28
2023-02-21T13:15:28.138Z,3.73
2023-02-21T13:17:03.121Z,3.65
2023-02-21T13:18:11.417Z,3.55
2023-02-21T13:26:13.049Z,3.58
2023-02-21T13:27:37.375Z,3.72
2023-02-21T13:28:41.630Z,3.92
2023-02-21T13:29:48.151Z,4.00
2023-02-21T13:30:55.026Z,4.10
2023-02-21T13:35:00.291Z,3.85
2023-02-21T13:36:41.863Z,3.77
2023-02-21T13:37:46.963Z,4.22
2023-02-21T13:39:02.068Z,4.42
2023-02-21T13:40:23.764Z,4.58
2023-02-21T13:41:33.965Z,3.67
2023-02-21T13:42:39.022Z,4.08
2023-02-21T13:43:50.579Z,3.93
2023-02-21T13:45:21.946Z,3.70
2023-02-21T13:46:46.770Z,3.58
2023-02-21T13:47:58.886Z,3.70
2023-02-21T13:49:38.148Z,3.42
2023-02-21T13:50:48.001Z,4.02
2023-02-21T13:51:56.350Z,4.22
2023-02-21T13:53:23.342Z,4.42
2023-02-21T13:54:25.811Z,4.42
2023-02-21T13:55:29.836Z,4.42
2023-02-21T13:56:43.524Z,4.83
2023-02-21T13:57:46.772Z,4.20
2023-02-21T13:58:49.736Z,4.27
2023-02-21T13:59:52.194Z,4.48
2023-02-21T14:00:54.948Z,4.25
2023-02-21T14:02:17.779Z,4.15
2023-02-21T14:03:38.024Z,4.63
2023-02-21T14:04:57.153Z,4.65
2023-02-21T14:05:59.692Z,4.08
2023-02-21T14:07:02.890Z,4.35
2023-02-21T14:08:08.638Z,5.12
2023-02-21T14:09:16.863Z,12.03
2023-02-21T14:10:28.115Z,10.27
2023-02-21T14:11:37.903Z,14.90
2023-02-21T14:13:36.922Z,6.38
2023-02-21T14:17:32.437Z,8.12
2023-02-21T14:18:40.631Z,40.78
2023-02-21T14:19:47.851Z,33.37
2023-02-21T14:20:53.528Z,14.77
2023-02-21T14:22:16.228Z,13.18
2023-02-21T14:23:23.198Z,63.70
2023-02-21T14:24:30.879Z,43.48
2023-02-21T14:25:35.398Z,18.97
2023-02-21T14:26:45.810Z,22.48
2023-02-21T14:27:48.255Z,20.90
2023-02-21T14:28:59.234Z,20.38
2023-02-21T14:30:01.618Z,40.00
2023-02-21T14:31:04.049Z,19.87
2023-02-21T14:32:09.633Z,21.85
2023-02-21T14:33:24.696Z,19.58
2023-02-21T14:34:48.151Z,17.37
2023-02-21T14:36:04.638Z,8.85
2023-02-21T14:37:51.056Z,10.02
2023-02-21T14:38:54.212Z,5.02
2023-02-21T14:40:00.948Z,3.77
2023-02-21T14:41:37.663Z,4.43
2023-02-21T14:43:17.548Z,5.57
2023-02-21T14:44:54.638Z,6.23
2023-02-21T14:46:30.798Z,4.87
2023-02-21T14:47:48.078Z,4.15
2023-02-21T14:49:12.257Z,4.58
2023-02-21T14:50:32.632Z,4.40
2023-02-21T14:51:46.382Z,4.55
2023-02-21T14:53:10.500Z,4.33
2023-02-21T14:54:50.717Z,4.55
2023-02-21T14:56:05.186Z,4.70
2023-02-21T14:57:27.626Z,5.08
2023-02-21T14:58:53.237Z,5.20
2023-02-21T15:00:00.166Z,4.38
2023-02-21T15:01:29.965Z,5.03
2023-02-21T15:03:02.027Z,5.40
2023-02-21T15:04:19.601Z,5.48
2023-02-21T15:05:29.321Z,5.38
2023-02-21T15:06:33.629Z,6.98
2023-02-21T15:07:56.704Z,5.62
2023-02-21T15:09:12.058Z,5.68
2023-02-21T15:10:22.687Z,5.45
2023-02-21T15:11:33.723Z,6.82
2023-02-21T15:12:42.139Z,10.48
2023-02-21T15:13:44.847Z,10.02
2023-02-21T15:14:55.295Z,8.22
2023-02-21T15:16:10.207Z,6.47
2023-02-21T15:17:18.548Z,6.95
2023-02-21T15:18:29.703Z,6.50
2023-02-21T15:19:35.361Z,6.00
2023-02-21T15:20:40.781Z,6.27
2023-02-21T15:21:43.106Z,5.67
2023-02-21T15:22:45.611Z,5.47
2023-02-21T15:24:01.026Z,4.98
2023-02-21T15:25:09.605Z,4.98
2023-02-21T15:26:24.400Z,5.47
2023-02-21T15:27:26.867Z,6.03
2023-02-21T15:28:31.578Z,6.70
2023-02-21T15:29:34.019Z,6.35
2023-02-21T15:30:41.434Z,4.70
2023-02-21T15:31:48.851Z,5.03
2023-02-21T15:33:06.597Z,5.18
2023-02-21T15:34:21.577Z,6.17
2023-02-21T15:35:31.080Z,6.85
2023-02-21T15:36:33.856Z,7.20
2023-02-21T15:37:39.618Z,8.57
2023-02-21T15:38:52.289Z,9.88
2023-02-21T15:40:00.207Z,8.42
2023-02-21T15:41:07.806Z,7.28
2023-02-21T15:42:13.559Z,6.83
2023-02-21T15:43:42.403Z,6.48
2023-02-21T15:44:50.450Z,5.42